createdAt,value
2022-08-10T00:01:03.119Z,102778.56
2022-08-10T00:03:32.452Z,102781.75
2022-08-10T00:06:00.685Z,102781.09
2022-08-10T00:08:28.937Z,102782.47
2022-08-10T00:10:58.493Z,102775.50
2022-08-10T00:13:27.771Z,102787.34
2022-08-10T00:15:55.825Z,102784.66
2022-08-10T00:18:34.310Z,102787.06
2022-08-10T00:21:05.578Z,102787.06
2022-08-10T00:23:33.604Z,102791.78
2022-08-10T00:26:01.533Z,102776.72
2022-08-10T00:28:29.496Z,102781.28
2022-08-10T00:30:57.674Z,102784.16
2022-08-10T00:33:25.543Z,102785.50
2022-08-10T00:35:53.632Z,102778.97
2022-08-10T00:38:22.967Z,102777.41
2022-08-10T00:40:51.024Z,102775.59
2022-08-10T00:43:23.247Z,102772.97
2022-08-10T00:45:59.159Z,102771.22
2022-08-10T00:48:30.407Z,102771.63
2022-08-10T00:51:00.426Z,102773.72
2022-08-10T00:53:30.785Z,102770.63
2022-08-10T00:57:12.393Z,102767.06
2022-08-10T00:58:47.832Z,102778.81
2022-08-10T01:02:07.475Z,102765.41
2022-08-10T01:04:57.308Z,102777.19
2022-08-10T01:07:06.775Z,102761.00
2022-08-10T01:09:57.092Z,102771.22
2022-08-10T01:12:38.631Z,102772.88
2022-08-10T01:15:15.588Z,102772.09
2022-08-10T01:17:53.542Z,102767.84
2022-08-10T01:20:31.406Z,102764.63
2022-08-10T01:23:26.885Z,102760.38
2022-08-10T01:26:30.740Z,102764.56
2022-08-10T01:29:09.415Z,102765.34
2022-08-10T01:31:42.685Z,102758.03
2022-08-10T01:34:15.809Z,102762.84
2022-08-10T01:36:49.818Z,102771.44
2022-08-10T01:39:27.605Z,102756.28
2022-08-10T01:41:58.228Z,102762.56
2022-08-10T01:44:31.713Z,102761.41
2022-08-10T01:47:22.210Z,102754.00
2022-08-10T01:49:55.093Z,102754.22
2022-08-10T01:52:26.969Z,102750.38
2022-08-10T01:54:56.508Z,102749.50
2022-08-10T01:57:25.796Z,102751.13
2022-08-10T02:00:02.082Z,102752.09
2022-08-10T02:02:32.814Z,102753.06
2022-08-10T02:05:05.095Z,102753.13
2022-08-10T02:07:37.775Z,102757.06
2022-08-10T02:10:12.037Z,102763.44
2022-08-10T02:12:42.262Z,102758.03
2022-08-10T02:15:14.318Z,102763.78
2022-08-10T02:18:00.466Z,102758.41
2022-08-10T02:20:34.126Z,102756.84
2022-08-10T02:23:05.760Z,102756.94
2022-08-10T02:25:42.567Z,102756.34
2022-08-10T02:28:30.621Z,102760.81
2022-08-10T02:31:01.665Z,102760.22
2022-08-10T02:33:31.531Z,102755.41
2022-08-10T02:36:01.706Z,102751.47
2022-08-10T02:38:58.526Z,102754.97
2022-08-10T02:45:14.851Z,102749.28
2022-08-10T02:45:23.854Z,102743.31
2022-08-10T02:47:23.640Z,102756.19
2022-08-10T02:49:58.480Z,102751.47
2022-08-10T02:52:36.398Z,102758.09
2022-08-10T02:55:18.060Z,102749.72
2022-08-10T02:58:12.596Z,102749.31
2022-08-10T03:00:45.515Z,102750.28
2022-08-10T03:03:27.304Z,102746.72
2022-08-10T03:06:01.532Z,102739.13
2022-08-10T03:08:33.437Z,102749.06
2022-08-10T03:11:05.912Z,102747.31
2022-08-10T03:13:36.082Z,102744.03
2022-08-10T03:16:04.931Z,102752.03
2022-08-10T03:18:34.350Z,102746.47
2022-08-10T03:21:10.090Z,102747.41
2022-08-10T03:23:41.582Z,102751.78
2022-08-10T03:26:11.707Z,102743.69
2022-08-10T03:28:40.367Z,102757.16
2022-08-10T03:31:08.558Z,102753.69
2022-08-10T03:33:39.644Z,102759.50
2022-08-10T03:36:42.356Z,102759.31
2022-08-10T03:38:58.357Z,102763.94
2022-08-10T03:41:35.554Z,102755.69
2022-08-10T03:44:05.843Z,102768.97
2022-08-10T03:46:36.374Z,102767.59
2022-08-10T03:49:05.946Z,102775.69
2022-08-10T03:51:36.643Z,102776.69
2022-08-10T03:54:07.515Z,102774.88
2022-08-10T03:56:41.007Z,102769.28
2022-08-10T03:59:11.422Z,102772.13
2022-08-10T04:02:45.243Z,102768.59
2022-08-10T04:04:27.612Z,102767.81
2022-08-10T04:07:01.827Z,102774.28
2022-08-10T04:09:53.381Z,102771.13
2022-08-10T04:12:19.715Z,102771.22
2022-08-10T04:14:50.358Z,102773.31
2022-08-10T04:18:04.864Z,102763.13
2022-08-10T04:20:13.071Z,102772.91
2022-08-10T04:22:44.833Z,102764.72
2022-08-10T04:25:14.083Z,102771.09
2022-08-10T04:27:42.547Z,102769.16
2022-08-10T04:30:11.655Z,102767.41
2022-08-10T04:32:41.201Z,102772.03
2022-08-10T04:35:11.234Z,102773.88
2022-08-10T04:37:46.886Z,102775.50
2022-08-10T04:40:28.401Z,102778.09
2022-08-10T04:43:03.381Z,102785.50
2022-08-10T04:45:48.678Z,102780.03
2022-08-10T04:48:39.991Z,102787.16
2022-08-10T04:51:11.219Z,102780.66
2022-08-10T04:54:04.206Z,102791.16
2022-08-10T04:56:36.900Z,102788.13
2022-08-10T04:59:06.304Z,102800.19
2022-08-10T05:02:12.504Z,102789.84
2022-08-10T05:04:34.048Z,102796.13
2022-08-10T05:07:05.918Z,102792.88
2022-08-10T05:09:33.939Z,102793.50
2022-08-10T05:12:23.669Z,102791.75
2022-08-10T05:14:52.706Z,102793.66
2022-08-10T05:17:23.194Z,102798.72
2022-08-10T05:20:04.813Z,102793.34
2022-08-10T05:22:36.399Z,102797.22
2022-08-10T05:25:05.848Z,102792.44
2022-08-10T05:27:35.374Z,102788.88
2022-08-10T05:30:04.183Z,102789.09
2022-08-10T05:32:55.455Z,102792.25
2022-08-10T05:35:21.078Z,102794.38
2022-08-10T05:38:10.951Z,102790.03
2022-08-10T05:40:42.482Z,102789.56
2022-08-10T05:43:18.100Z,102784.56
2022-08-10T05:46:16.857Z,102787.56
2022-08-10T05:48:55.465Z,102788.13
2022-08-10T05:51:23.334Z,102786.72
2022-08-10T05:54:03.207Z,102789.97
2022-08-10T05:56:56.843Z,102787.63
2022-08-10T06:00:33.688Z,102780.50
2022-08-10T06:02:31.138Z,102777.03
2022-08-10T06:05:07.451Z,102777.47
2022-08-10T06:07:38.494Z,102775.03
2022-08-10T06:10:10.140Z,102780.84
2022-08-10T06:12:54.184Z,102783.88
2022-08-10T06:15:51.966Z,102785.13
2022-08-10T06:18:14.811Z,102779.97
2022-08-10T06:20:43.590Z,102775.75
2022-08-10T06:23:13.652Z,102784.25
2022-08-10T06:26:09.589Z,102785.63
2022-08-10T06:28:33.860Z,102795.16
2022-08-10T06:31:05.404Z,102793.75
2022-08-10T06:33:35.759Z,102792.25
2022-08-10T06:36:06.251Z,102789.44
2022-08-10T06:38:36.169Z,102778.16
2022-08-10T06:41:19.882Z,102782.75
2022-08-10T06:43:52.973Z,102781.84
2022-08-10T06:46:24.678Z,102776.78
2022-08-10T06:48:55.824Z,102772.25
2022-08-10T06:51:27.223Z,102775.78
2022-08-10T06:53:59.508Z,102768.50
2022-08-10T06:56:36.687Z,102763.81
2022-08-10T06:59:14.613Z,102758.78
2022-08-10T07:01:57.861Z,102741.69
2022-08-10T07:04:32.291Z,102756.41
2022-08-10T07:07:05.114Z,102760.34
2022-08-10T07:09:34.433Z,102751.88
2022-08-10T07:12:07.558Z,102757.19
2022-08-10T07:14:39.623Z,102758.00
2022-08-10T07:17:15.188Z,102761.03
2022-08-10T07:19:50.187Z,102760.44
2022-08-10T07:23:51.796Z,102756.88
2022-08-10T07:25:10.705Z,102769.59
2022-08-10T07:28:00.675Z,102766.69
2022-08-10T07:30:29.946Z,102763.16
2022-08-10T07:33:04.427Z,102774.47
2022-08-10T07:35:42.900Z,102780.63
2022-08-10T07:38:21.664Z,102777.84
2022-08-10T07:40:52.023Z,102773.66
2022-08-10T07:43:24.363Z,102778.06
2022-08-10T07:45:52.536Z,102781.53
2022-08-10T07:48:27.480Z,102786.09
2022-08-10T07:51:00.392Z,102780.09
2022-08-10T07:53:31.809Z,102790.34
2022-08-10T07:56:13.285Z,102785.03
2022-08-10T07:58:52.600Z,102775.69
2022-08-10T08:01:24.543Z,102781.34
2022-08-10T08:04:04.996Z,102793.38
2022-08-10T08:06:34.830Z,102788.47
2022-08-10T08:09:04.498Z,102784.41
2022-08-10T08:11:33.586Z,102786.75
2022-08-10T08:14:03.164Z,102779.84
2022-08-10T08:16:33.326Z,102784.19
2022-08-10T08:19:28.062Z,102786.94
2022-08-10T08:24:08.725Z,102781.19
2022-08-10T08:24:43.023Z,102783.19
2022-08-10T08:27:15.191Z,102776.69
2022-08-10T08:29:46.022Z,102772.44
2022-08-10T08:32:16.855Z,102778.94
2022-08-10T08:34:47.478Z,102773.88
2022-08-10T08:38:31.322Z,102774.41
2022-08-10T08:40:11.354Z,102777.75
2022-08-10T08:43:27.373Z,102782.84
2022-08-10T08:46:19.773Z,102763.06
2022-08-10T08:50:04.403Z,102765.25
2022-08-10T08:52:26.209Z,102760.88
2022-08-10T08:55:04.099Z,102765.72
2022-08-10T08:58:04.288Z,102756.88
2022-08-10T09:00:42.197Z,102764.16
2022-08-10T09:03:33.394Z,102757.63
2022-08-10T09:06:17.132Z,102755.94
2022-08-10T09:09:07.246Z,102750.78
2022-08-10T09:11:49.266Z,102749.78
2022-08-10T09:14:26.130Z,102755.41
2022-08-10T09:17:04.817Z,102751.00
2022-08-10T09:19:39.632Z,102752.34
2022-08-10T09:22:18.687Z,102751.84
2022-08-10T09:24:59.540Z,102750.81
2022-08-10T09:27:33.912Z,102748.09
2022-08-10T09:30:07.920Z,102745.88
2022-08-10T09:36:16.929Z,102743.94
2022-08-10T09:36:29.832Z,102737.25
2022-08-10T09:38:44.130Z,102737.13
2022-08-10T09:41:26.252Z,102738.34
2022-08-10T09:44:02.504Z,102730.28
2022-08-10T09:46:57.291Z,102734.88
2022-08-10T09:49:54.315Z,102733.56
2022-08-10T09:52:31.324Z,102739.28
2022-08-10T09:55:11.253Z,102736.75
2022-08-10T09:57:54.914Z,102734.69
2022-08-10T10:00:34.618Z,102732.94
2022-08-10T10:03:17.317Z,102726.28
2022-08-10T10:05:54.679Z,102728.50
2022-08-10T10:08:29.608Z,102734.78
2022-08-10T10:11:13.120Z,102725.97
2022-08-10T10:14:04.020Z,102721.94
2022-08-10T10:16:48.796Z,102711.56
2022-08-10T10:19:31.866Z,102708.66
2022-08-10T10:22:14.576Z,102708.31
2022-08-10T10:24:47.315Z,102707.13
2022-08-10T10:27:27.770Z,102697.88
2022-08-10T10:30:05.219Z,102698.16
2022-08-10T10:32:46.102Z,102692.97
2022-08-10T10:35:21.924Z,102690.13
2022-08-10T10:38:02.134Z,102699.81
2022-08-10T10:40:41.270Z,102688.06
2022-08-10T10:43:18.267Z,102690.53
2022-08-10T10:46:07.508Z,102687.44
2022-08-10T10:48:43.756Z,102679.59
2022-08-10T10:51:17.704Z,102683.63
2022-08-10T10:53:54.204Z,102681.94
2022-08-10T10:56:31.343Z,102684.00
2022-08-10T10:59:15.358Z,102671.13
2022-08-10T11:02:18.948Z,102673.09
2022-08-10T11:04:55.235Z,102677.91
2022-08-10T11:07:34.005Z,102673.78
2022-08-10T11:10:31.497Z,102675.00
2022-08-10T11:13:04.686Z,102675.84
2022-08-10T11:16:02.489Z,102670.19
2022-08-10T11:18:48.781Z,102674.25
2022-08-10T11:21:37.822Z,102671.22
2022-08-10T11:24:47.006Z,102668.56
2022-08-10T11:27:09.989Z,102662.81
2022-08-10T11:29:59.079Z,102661.53
2022-08-10T11:32:36.319Z,102664.53
2022-08-10T11:35:15.879Z,102655.03
2022-08-10T11:38:31.085Z,102660.19
2022-08-10T11:40:46.302Z,102645.50
2022-08-10T11:43:22.056Z,102645.34
2022-08-10T11:45:55.993Z,102650.69
2022-08-10T11:48:53.723Z,102652.56
2022-08-10T11:51:27.771Z,102640.03
2022-08-10T11:54:01.495Z,102639.66
2022-08-10T11:56:40.465Z,102644.03
2022-08-10T11:59:37.917Z,102635.25
2022-08-10T12:02:07.632Z,102633.56
2022-08-10T12:04:37.103Z,102631.19
2022-08-10T12:10:02.626Z,102624.91
2022-08-10T12:10:11.506Z,102623.59
2022-08-10T12:12:46.898Z,102616.69
2022-08-10T12:15:21.009Z,102622.81
2022-08-10T12:17:55.914Z,102617.19
2022-08-10T12:20:30.021Z,102615.69
2022-08-10T12:23:06.816Z,102614.97
2022-08-10T12:25:55.996Z,102612.94
2022-08-10T12:28:50.250Z,102604.75
2022-08-10T12:31:22.689Z,102605.19
2022-08-10T12:34:02.184Z,102599.22
2022-08-10T12:36:38.479Z,102594.72
2022-08-10T12:39:14.881Z,102587.91
2022-08-10T12:41:50.335Z,102593.56
2022-08-10T12:44:23.835Z,102588.09
2022-08-10T12:47:19.225Z,102593.38
2022-08-10T12:50:30.910Z,102584.59
2022-08-10T12:52:59.448Z,102581.06
2022-08-10T12:55:39.231Z,102576.94
2022-08-10T12:58:59.221Z,102579.06
2022-08-10T13:01:15.765Z,102581.75
2022-08-10T13:04:20.343Z,102576.22
2022-08-10T13:06:38.679Z,102567.56
2022-08-10T13:09:13.953Z,102552.53
2022-08-10T13:12:38.214Z,102560.59
2022-08-10T13:14:41.367Z,102554.16
2022-08-10T13:17:11.201Z,102560.47
2022-08-10T13:19:56.003Z,102552.19
2022-08-10T13:22:30.446Z,102551.56
2022-08-10T13:25:02.596Z,102552.78
2022-08-10T13:27:59.837Z,102551.56
2022-08-10T13:30:37.811Z,102555.53
2022-08-10T13:33:08.550Z,102545.31
2022-08-10T13:35:37.587Z,102535.22
2022-08-10T13:38:07.477Z,102540.44
2022-08-10T13:40:37.484Z,102531.63
2022-08-10T13:43:09.897Z,102533.72
2022-08-10T13:45:46.415Z,102525.88
2022-08-10T13:48:21.324Z,102516.97
2022-08-10T13:50:51.466Z,102515.59
2022-08-10T13:53:21.933Z,102515.44
2022-08-10T13:55:57.301Z,102509.41
2022-08-10T13:58:31.090Z,102518.19
2022-08-10T14:01:00.973Z,102512.06
2022-08-10T14:03:35.543Z,102508.03
2022-08-10T14:06:06.897Z,102508.22
2022-08-10T14:08:35.417Z,102514.91
2022-08-10T14:11:11.281Z,102518.25
2022-08-10T14:13:44.398Z,102503.19
2022-08-10T14:16:13.997Z,102507.38
2022-08-10T14:18:46.181Z,102498.34
2022-08-10T14:21:15.028Z,102503.13
2022-08-10T14:23:53.273Z,102498.06
2022-08-10T14:26:26.175Z,102494.78
2022-08-10T14:28:59.299Z,102486.06
2022-08-10T14:31:33.603Z,102497.38
2022-08-10T14:34:05.486Z,102499.09
2022-08-10T14:36:41.739Z,102491.75
2022-08-10T14:39:13.070Z,102483.34
2022-08-10T14:42:01.714Z,102487.59
2022-08-10T14:44:34.503Z,102474.94
2022-08-10T14:47:53.597Z,102480.28
2022-08-10T14:49:57.355Z,102465.41
2022-08-10T14:52:28.558Z,102473.72
2022-08-10T14:54:58.083Z,102471.88
2022-08-10T14:58:16.656Z,102466.22
2022-08-10T15:00:33.111Z,102472.53
2022-08-10T15:03:24.667Z,102467.59
2022-08-10T15:05:59.098Z,102473.09
2022-08-10T15:08:29.479Z,102462.28
2022-08-10T15:11:06.457Z,102463.47
2022-08-10T15:13:35.582Z,102461.91
2022-08-10T15:16:13.146Z,102465.03
2022-08-10T15:18:57.597Z,102458.00
2022-08-10T15:21:43.014Z,102456.78
2022-08-10T15:24:16.219Z,102457.78
2022-08-10T15:26:57.428Z,102450.06
2022-08-10T15:29:28.125Z,102453.84
2022-08-10T15:32:14.827Z,102445.03
2022-08-10T15:35:02.597Z,102442.88
2022-08-10T15:37:40.063Z,102439.44
2022-08-10T15:40:24.655Z,102434.31
2022-08-10T15:43:01.384Z,102440.31
2022-08-10T15:45:34.859Z,102441.53
2022-08-10T15:48:07.777Z,102436.88
2022-08-10T15:50:39.967Z,102442.88
2022-08-10T15:53:15.903Z,102435.88
2022-08-10T15:55:51.696Z,102430.72
2022-08-10T15:58:37.563Z,102422.63
2022-08-10T16:02:13.026Z,102426.75
2022-08-10T16:04:08.584Z,102428.16
2022-08-10T16:06:41.487Z,102427.09
2022-08-10T16:10:23.156Z,102433.81
2022-08-10T16:12:09.490Z,102423.31
2022-08-10T16:14:38.771Z,102419.41
2022-08-10T16:17:11.764Z,102423.34
2022-08-10T16:19:49.784Z,102426.22
2022-08-10T16:22:36.767Z,102425.22
2022-08-10T16:25:14.138Z,102427.09
2022-08-10T16:27:44.117Z,102429.59
2022-08-10T16:30:13.377Z,102431.69
2022-08-10T16:32:42.389Z,102420.16
2022-08-10T16:35:18.328Z,102419.53
2022-08-10T16:37:58.180Z,102425.13
2022-08-10T16:40:30.273Z,102420.69
2022-08-10T16:43:02.168Z,102408.81
2022-08-10T16:45:34.309Z,102411.06
2022-08-10T16:48:03.113Z,102405.06
2022-08-10T16:50:36.592Z,102408.16
2022-08-10T16:53:07.875Z,102409.34
2022-08-10T16:55:48.284Z,102404.19
2022-08-10T16:58:21.957Z,102395.78
2022-08-10T17:00:51.536Z,102402.66
2022-08-10T17:04:06.436Z,102393.38
2022-08-10T17:06:23.586Z,102390.63
2022-08-10T17:08:54.946Z,102390.59
2022-08-10T17:11:28.475Z,102397.28
2022-08-10T17:13:58.060Z,102398.50
2022-08-10T17:16:28.862Z,102392.34
2022-08-10T17:18:58.856Z,102393.69
2022-08-10T17:21:32.354Z,102389.91
2022-08-10T17:24:05.200Z,102387.97
2022-08-10T17:26:38.311Z,102389.69
2022-08-10T17:29:17.278Z,102383.94
2022-08-10T17:32:07.465Z,102391.38
2022-08-10T17:34:39.909Z,102382.63
2022-08-10T17:37:17.085Z,102387.56
2022-08-10T17:39:49.879Z,102377.41
2022-08-10T17:42:22.271Z,102380.66
2022-08-10T17:44:52.900Z,102370.88
2022-08-10T17:47:27.101Z,102374.97
2022-08-10T17:49:57.825Z,102365.03
2022-08-10T17:52:30.296Z,102371.53
2022-08-10T17:55:01.936Z,102376.66
2022-08-10T17:57:34.601Z,102370.13
2022-08-10T18:00:03.898Z,102370.13
2022-08-10T18:02:37.740Z,102369.34
2022-08-10T18:05:10.602Z,102369.00
2022-08-10T18:07:46.636Z,102391.38
2022-08-10T18:10:18.692Z,102387.69
2022-08-10T18:12:48.856Z,102388.44
2022-08-10T18:15:22.129Z,102389.94
2022-08-10T18:17:56.962Z,102400.84
2022-08-10T18:20:35.833Z,102390.34
2022-08-10T18:23:08.224Z,102393.41
2022-08-10T18:25:39.257Z,102404.28
2022-08-10T18:28:21.027Z,102401.88
2022-08-10T18:30:52.206Z,102400.38
2022-08-10T18:33:26.787Z,102398.78
2022-08-10T18:35:56.697Z,102398.31
2022-08-10T18:38:29.390Z,102404.47
2022-08-10T18:41:01.797Z,102409.72
2022-08-10T18:44:06.374Z,102405.88
2022-08-10T18:46:28.805Z,102404.47
2022-08-10T18:49:02.452Z,102404.06
2022-08-10T18:51:37.460Z,102407.72
2022-08-10T18:54:38.830Z,102410.31
2022-08-10T18:57:19.020Z,102409.03
2022-08-10T19:00:07.432Z,102416.88
2022-08-10T19:02:50.861Z,102417.78
2022-08-10T19:05:38.059Z,102418.22
2022-08-10T19:08:49.045Z,102420.81
2022-08-10T19:11:31.988Z,102428.03
2022-08-10T19:14:07.687Z,102428.47
2022-08-10T19:16:48.861Z,102433.94
2022-08-10T19:19:30.273Z,102441.00
2022-08-10T19:22:06.009Z,102434.94
2022-08-10T19:24:49.418Z,102433.81
2022-08-10T19:27:31.765Z,102445.31
2022-08-10T19:30:12.927Z,102441.31
2022-08-10T19:32:56.168Z,102433.84
2022-08-10T19:36:03.769Z,102432.97
2022-08-10T19:38:33.529Z,102436.00
2022-08-10T19:41:10.899Z,102436.41
2022-08-10T19:44:00.092Z,102430.69
2022-08-10T19:46:38.748Z,102430.91
2022-08-10T19:49:17.356Z,102430.78
2022-08-10T19:51:55.063Z,102423.59
2022-08-10T19:54:30.815Z,102436.22
2022-08-10T19:57:06.445Z,102439.66
2022-08-10T20:00:15.611Z,102443.50
2022-08-10T20:02:48.254Z,102444.50
2022-08-10T20:05:27.183Z,102448.25
2022-08-10T20:07:59.229Z,102441.00
2022-08-10T20:10:36.299Z,102445.59
2022-08-10T20:13:14.084Z,102441.84
2022-08-10T20:15:47.553Z,102444.53
2022-08-10T20:18:24.371Z,102450.72
2022-08-10T20:21:04.857Z,102451.50
2022-08-10T20:23:36.752Z,102448.63
2022-08-10T20:26:14.365Z,102444.59
2022-08-10T20:28:58.986Z,102448.56
2022-08-10T20:31:42.236Z,102451.25
2022-08-10T20:34:20.672Z,102451.34
2022-08-10T20:36:59.831Z,102450.22
2022-08-10T20:39:47.751Z,102456.19
2022-08-10T20:42:22.745Z,102461.19
2022-08-10T20:45:03.465Z,102455.25
2022-08-10T20:47:57.710Z,102459.19
2022-08-10T20:50:35.821Z,102455.56
2022-08-10T20:53:09.767Z,102458.06
2022-08-10T20:55:53.937Z,102450.91
2022-08-10T20:58:36.937Z,102449.59
2022-08-10T21:01:17.090Z,102453.28
2022-08-10T21:04:13.611Z,102451.97
2022-08-10T21:07:05.636Z,102448.19
2022-08-10T21:09:51.268Z,102453.88
2022-08-10T21:12:51.827Z,102454.41
2022-08-10T21:15:29.422Z,102450.94
2022-08-10T21:18:20.528Z,102455.28
2022-08-10T21:21:16.789Z,102453.63
2022-08-10T21:23:51.898Z,102449.81
2022-08-10T21:26:40.154Z,102454.84
2022-08-10T21:29:21.599Z,102450.28
2022-08-10T21:32:03.463Z,102452.03
2022-08-10T21:34:52.163Z,102450.56
2022-08-10T21:37:40.072Z,102442.78
2022-08-10T21:41:17.120Z,102439.34
2022-08-10T21:44:04.990Z,102438.88
2022-08-10T21:47:02.769Z,102439.13
2022-08-10T21:49:57.294Z,102430.47
2022-08-10T21:53:04.457Z,102444.06
2022-08-10T21:56:02.857Z,102445.44
2022-08-10T21:58:54.922Z,102444.94
2022-08-10T22:01:53.247Z,102446.94
2022-08-10T22:04:40.219Z,102441.63
2022-08-10T22:07:36.103Z,102436.81
2022-08-10T22:10:25.876Z,102430.28
2022-08-10T22:13:13.599Z,102431.66
2022-08-10T22:16:11.024Z,102425.47
2022-08-10T22:19:02.455Z,102424.34
2022-08-10T22:22:02.037Z,102427.56
2022-08-10T22:25:17.140Z,102426.41
2022-08-10T22:28:12.369Z,102427.56
2022-08-10T22:34:24.896Z,102425.06
2022-08-10T22:37:36.237Z,102422.97
2022-08-10T22:40:25.774Z,102424.22
2022-08-10T22:43:15.915Z,102423.22
2022-08-10T22:46:23.254Z,102426.28
2022-08-10T22:49:02.268Z,102428.03
2022-08-10T22:51:39.292Z,102417.44
2022-08-10T22:54:32.841Z,102426.06
2022-08-10T22:57:20.046Z,102420.63
2022-08-10T22:59:50.842Z,102425.03
2022-08-10T23:02:33.225Z,102430.97
2022-08-10T23:05:09.255Z,102428.16
2022-08-10T23:07:46.645Z,102429.97
2022-08-10T23:10:17.528Z,102433.78
2022-08-10T23:12:51.023Z,102431.34
2022-08-10T23:15:43.821Z,102429.72
2022-08-10T23:18:33.474Z,102435.66
2022-08-10T23:21:03.517Z,102433.91
2022-08-10T23:23:40.262Z,102432.53
2022-08-10T23:26:11.547Z,102435.63
2022-08-10T23:28:58.509Z,102436.84
2022-08-10T23:32:00.685Z,102427.56
2022-08-10T23:34:26.360Z,102429.91
2022-08-10T23:36:57.295Z,102421.91
2022-08-10T23:39:31.462Z,102419.19
2022-08-10T23:42:07.569Z,102428.06
2022-08-10T23:44:43.801Z,102429.88
2022-08-10T23:47:17.212Z,102426.09
2022-08-10T23:49:46.460Z,102423.84
2022-08-10T23:52:16.810Z,102424.72
2022-08-10T23:54:49.731Z,102419.72
2022-08-10T23:57:21.362Z,102416.75
2022-08-10T23:59:56.408Z,102416.13
